createdAt,value
2019-02-15T00:02:20.032Z,1.10
2019-02-15T00:04:48.440Z,0.63
2019-02-15T00:07:16.908Z,0.77
2019-02-15T00:09:45.316Z,1.10
2019-02-15T00:12:13.715Z,1.03
2019-02-15T00:14:46.732Z,0.63
2019-02-15T00:17:16.842Z,0.93
2019-02-15T00:19:46.889Z,0.90
2019-02-15T00:22:15.283Z,0.90
2019-02-15T00:24:43.692Z,1.00
2019-02-15T00:27:12.093Z,0.93
2019-02-15T00:29:40.510Z,0.93
2019-02-15T00:32:08.908Z,0.87
2019-02-15T00:34:37.321Z,0.70
2019-02-15T00:37:05.381Z,0.60
2019-02-15T00:39:33.780Z,0.67
2019-02-15T00:42:02.190Z,0.70
2019-02-15T00:44:30.596Z,0.80
2019-02-15T00:47:00.640Z,0.70
2019-02-15T00:49:30.353Z,0.53
2019-02-15T00:52:00.397Z,0.70
2019-02-15T00:54:30.172Z,0.57
2019-02-15T00:57:08.911Z,0.80
2019-02-15T00:59:47.906Z,0.70
2019-02-15T01:02:17.956Z,0.80
2019-02-15T01:04:59.932Z,0.83
2019-02-15T01:07:46.395Z,0.67
2019-02-15T01:10:25.453Z,0.80
2019-02-15T01:12:55.164Z,0.60
2019-02-15T01:15:23.573Z,0.80
2019-02-15T01:17:52.041Z,0.90
2019-02-15T01:20:20.435Z,0.70
2019-02-15T01:22:48.852Z,0.70
2019-02-15T01:25:17.248Z,0.63
2019-02-15T01:27:47.297Z,0.80
2019-02-15T01:30:35.393Z,0.60
2019-02-15T01:33:08.092Z,0.60
2019-02-15T01:35:38.131Z,0.70
2019-02-15T01:38:20.332Z,0.60
2019-02-15T01:40:53.116Z,0.77
2019-02-15T01:43:39.741Z,0.70
2019-02-15T01:46:03.764Z,0.90
2019-02-15T01:48:32.165Z,1.00
2019-02-15T01:51:00.570Z,0.63
2019-02-15T01:53:28.976Z,0.83
2019-02-15T01:55:57.377Z,0.60
2019-02-15T01:58:25.781Z,0.70
2019-02-15T02:00:54.185Z,0.60
2019-02-15T02:03:22.592Z,0.50
2019-02-15T02:05:50.989Z,0.50
2019-02-15T02:08:21.504Z,0.73
2019-02-15T02:10:49.909Z,0.50
2019-02-15T02:13:18.316Z,0.47
2019-02-15T02:15:46.712Z,0.50
2019-02-15T02:18:15.116Z,0.50
2019-02-15T02:20:44.279Z,0.50
2019-02-15T02:23:12.688Z,0.60
2019-02-15T02:25:41.099Z,0.60
2019-02-15T02:28:09.513Z,0.60
2019-02-15T02:30:37.927Z,0.47
2019-02-15T02:33:06.001Z,0.43
2019-02-15T02:35:34.397Z,0.70
2019-02-15T02:38:02.540Z,0.50
2019-02-15T02:40:30.936Z,0.47
2019-02-15T02:42:59.349Z,0.47
2019-02-15T02:45:27.739Z,0.40
2019-02-15T02:47:56.154Z,0.67
2019-02-15T02:50:24.543Z,0.30
2019-02-15T02:52:52.958Z,0.67
2019-02-15T02:55:21.052Z,0.50
2019-02-15T02:57:49.501Z,0.70
2019-02-15T03:00:17.889Z,0.60
2019-02-15T03:02:46.307Z,0.57
2019-02-15T03:05:14.696Z,0.40
2019-02-15T03:07:43.125Z,0.50
2019-02-15T03:10:11.268Z,0.60
2019-02-15T03:12:39.673Z,0.70
2019-02-15T03:15:08.355Z,0.50
2019-02-15T03:17:36.771Z,0.40
2019-02-15T03:20:05.716Z,0.40
2019-02-15T03:22:34.109Z,0.50
2019-02-15T03:25:02.521Z,0.60
2019-02-15T03:27:31.007Z,0.40
2019-02-15T03:29:59.413Z,0.63
2019-02-15T03:32:27.806Z,0.63
2019-02-15T03:34:56.219Z,0.60
2019-02-15T03:37:31.993Z,0.60
2019-02-15T03:40:02.040Z,0.57
2019-02-15T03:42:30.105Z,0.63
2019-02-15T03:44:58.513Z,0.53
2019-02-15T03:47:27.294Z,0.77
2019-02-15T03:49:55.699Z,0.43
2019-02-15T03:52:24.093Z,0.60
2019-02-15T03:54:52.505Z,0.50
2019-02-15T03:57:20.905Z,0.43
2019-02-15T03:59:49.376Z,0.40
2019-02-15T04:02:17.849Z,0.73
2019-02-15T04:04:46.252Z,0.60
2019-02-15T04:07:14.659Z,0.70
2019-02-15T04:09:43.066Z,0.60
2019-02-15T04:12:11.465Z,0.90
2019-02-15T04:14:39.541Z,0.50
2019-02-15T04:17:07.953Z,0.60
2019-02-15T04:19:36.102Z,0.70
2019-02-15T04:22:04.492Z,0.70
2019-02-15T04:24:32.565Z,0.70
2019-02-15T04:27:00.971Z,0.90
2019-02-15T04:29:29.221Z,0.83
2019-02-15T04:31:57.279Z,0.90
2019-02-15T04:34:25.689Z,0.83
2019-02-15T04:36:54.080Z,0.87
2019-02-15T04:39:22.488Z,0.80
2019-02-15T04:41:50.885Z,0.70
2019-02-15T04:44:18.953Z,0.60
2019-02-15T04:46:47.352Z,0.93
2019-02-15T04:49:15.754Z,1.00
2019-02-15T04:51:44.158Z,1.17
2019-02-15T04:54:12.559Z,1.10
2019-02-15T04:56:40.961Z,1.40
2019-02-15T04:59:09.356Z,2.20
2019-02-15T05:01:37.777Z,1.67
2019-02-15T05:04:06.174Z,1.57
2019-02-15T05:06:34.577Z,1.60
2019-02-15T05:09:03.941Z,1.80
2019-02-15T05:11:32.351Z,1.30
2019-02-15T05:14:00.753Z,1.07
2019-02-15T05:16:29.152Z,1.23
2019-02-15T05:18:57.549Z,1.50
2019-02-15T05:21:25.959Z,1.07
2019-02-15T05:23:54.023Z,0.90
2019-02-15T05:26:22.423Z,1.00
2019-02-15T05:28:50.820Z,1.10
2019-02-15T05:31:19.240Z,1.00
2019-02-15T05:33:47.642Z,1.00
2019-02-15T05:36:16.045Z,0.90
2019-02-15T05:38:44.448Z,0.90
2019-02-15T05:41:12.861Z,1.43
2019-02-15T05:43:40.951Z,1.07
2019-02-15T05:46:09.344Z,1.37
2019-02-15T05:48:37.416Z,1.17
2019-02-15T05:51:05.822Z,1.00
2019-02-15T05:53:34.220Z,1.20
2019-02-15T05:56:02.633Z,1.23
2019-02-15T05:58:31.035Z,1.13
2019-02-15T06:00:59.440Z,1.00
2019-02-15T06:03:27.835Z,0.87
2019-02-15T06:05:56.249Z,0.97
2019-02-15T06:08:24.732Z,0.80
2019-02-15T06:11:12.476Z,0.70
2019-02-15T06:13:40.868Z,0.63
2019-02-15T06:16:09.272Z,0.77
2019-02-15T06:18:37.669Z,0.70
2019-02-15T06:21:06.073Z,0.70
2019-02-15T06:23:34.473Z,0.87
2019-02-15T06:26:02.906Z,0.80
2019-02-15T06:28:31.307Z,1.10
2019-02-15T06:30:59.989Z,1.33
2019-02-15T06:33:28.048Z,1.00
2019-02-15T06:35:56.452Z,0.97
2019-02-15T06:38:34.233Z,0.73
2019-02-15T06:40:54.997Z,0.80
2019-02-15T06:43:23.394Z,0.90
2019-02-15T06:45:51.807Z,0.90
2019-02-15T06:48:20.204Z,0.60
2019-02-15T06:50:48.613Z,1.00
2019-02-15T06:53:17.017Z,0.70
2019-02-15T06:55:45.089Z,0.63
2019-02-15T06:58:13.492Z,0.90
2019-02-15T07:00:55.009Z,0.70
2019-02-15T07:03:30.716Z,0.77
2019-02-15T07:05:59.149Z,0.60
2019-02-15T07:08:27.550Z,0.90
2019-02-15T07:10:55.962Z,0.70
2019-02-15T07:13:24.375Z,0.70
2019-02-15T07:15:52.828Z,0.60
2019-02-15T07:18:21.226Z,0.80
2019-02-15T07:20:49.688Z,0.73
2019-02-15T07:23:18.096Z,1.27
2019-02-15T07:25:46.494Z,0.80
2019-02-15T07:28:14.903Z,0.80
2019-02-15T07:30:43.299Z,0.60
2019-02-15T07:33:11.380Z,0.73
2019-02-15T07:35:39.453Z,1.00
2019-02-15T07:38:07.873Z,0.63
2019-02-15T07:40:35.946Z,0.80
2019-02-15T07:43:04.348Z,1.33
2019-02-15T07:45:32.751Z,1.30
2019-02-15T07:48:01.168Z,1.80
2019-02-15T07:50:29.564Z,1.23
2019-02-15T07:52:57.972Z,1.40
2019-02-15T07:55:26.148Z,1.60
2019-02-15T07:57:54.548Z,2.53
2019-02-15T08:00:22.957Z,2.20
2019-02-15T08:02:51.420Z,2.30
2019-02-15T08:05:19.949Z,2.13
2019-02-15T08:07:48.352Z,2.50
2019-02-15T08:10:36.089Z,3.10
2019-02-15T08:13:04.508Z,2.97
2019-02-15T08:15:36.300Z,2.97
2019-02-15T08:18:03.020Z,2.50
2019-02-15T08:20:31.412Z,2.80
2019-02-15T08:22:59.817Z,3.00
2019-02-15T08:25:28.213Z,2.83
2019-02-15T08:27:56.616Z,3.10
2019-02-15T08:30:24.706Z,2.70
2019-02-15T08:32:53.286Z,2.70
2019-02-15T08:35:21.689Z,2.23
2019-02-15T08:37:50.090Z,2.37
2019-02-15T08:40:18.494Z,1.77
2019-02-15T08:42:46.901Z,2.70
2019-02-15T08:45:14.957Z,2.90
2019-02-15T08:47:43.356Z,3.17
2019-02-15T08:50:12.398Z,3.03
2019-02-15T08:52:40.805Z,2.87
2019-02-15T08:55:10.943Z,2.93
2019-02-15T08:57:39.489Z,3.60
2019-02-15T09:00:12.896Z,3.10
2019-02-15T09:02:40.971Z,3.33
2019-02-15T09:05:10.580Z,3.40
2019-02-15T09:07:38.972Z,3.55
2019-02-15T09:10:10.020Z,2.47
2019-02-15T09:12:38.083Z,2.30
2019-02-15T09:15:12.176Z,2.72
2019-02-15T09:17:40.653Z,1.90
2019-02-15T09:20:11.190Z,1.75
2019-02-15T09:22:39.583Z,1.95
2019-02-15T09:25:10.131Z,1.75
2019-02-15T09:27:39.831Z,2.22
2019-02-15T09:30:11.315Z,2.45
2019-02-15T09:32:39.786Z,1.92
2019-02-15T09:35:10.635Z,2.27
2019-02-15T09:37:39.028Z,2.70
2019-02-15T09:40:09.376Z,2.12
2019-02-15T09:42:37.781Z,2.12
2019-02-15T09:45:13.872Z,2.15
2019-02-15T09:47:42.282Z,2.35
2019-02-15T09:50:12.276Z,1.72
2019-02-15T09:52:41.097Z,1.60
2019-02-15T09:55:09.508Z,2.30
2019-02-15T09:57:37.576Z,1.60
2019-02-15T10:00:08.600Z,1.75
2019-02-15T10:02:37.002Z,1.85
2019-02-15T10:05:05.760Z,1.72
2019-02-15T10:07:34.150Z,1.80
2019-02-15T10:10:02.552Z,1.70
2019-02-15T10:12:30.943Z,1.70
2019-02-15T10:14:59.026Z,1.90
2019-02-15T10:17:27.424Z,1.90
2019-02-15T10:19:55.838Z,1.50
2019-02-15T10:22:24.240Z,1.70
2019-02-15T10:24:52.658Z,1.72
2019-02-15T10:27:21.054Z,1.72
2019-02-15T10:29:49.469Z,1.85
2019-02-15T10:32:17.873Z,1.47
2019-02-15T10:34:46.337Z,2.55
2019-02-15T10:37:14.751Z,1.57
2019-02-15T10:39:43.189Z,1.35
2019-02-15T10:42:11.644Z,2.10
2019-02-15T10:44:39.719Z,1.70
2019-02-15T10:47:13.863Z,1.50
2019-02-15T10:49:38.242Z,1.30
2019-02-15T10:52:06.648Z,1.40
2019-02-15T10:54:35.048Z,1.55
2019-02-15T10:57:03.455Z,1.50
2019-02-15T10:59:31.855Z,1.70
2019-02-15T11:02:00.265Z,1.80
2019-02-15T11:04:28.667Z,1.92
2019-02-15T11:06:57.081Z,1.92
2019-02-15T11:09:25.499Z,1.70
2019-02-15T11:11:53.997Z,2.30
2019-02-15T11:14:22.403Z,1.90
2019-02-15T11:16:50.813Z,1.77
2019-02-15T11:19:19.213Z,1.65
2019-02-15T11:21:47.628Z,1.57
2019-02-15T11:24:16.028Z,1.57
2019-02-15T11:26:44.435Z,1.52
2019-02-15T11:29:12.842Z,1.42
2019-02-15T11:31:41.248Z,1.37
2019-02-15T11:34:09.634Z,1.30
2019-02-15T11:36:38.042Z,1.15
2019-02-15T11:39:06.274Z,1.25
2019-02-15T11:41:34.681Z,1.15
2019-02-15T11:44:03.081Z,1.00
2019-02-15T11:46:31.513Z,1.17
2019-02-15T11:48:59.910Z,1.10
2019-02-15T11:51:28.310Z,0.72
2019-02-15T11:53:58.585Z,0.85
2019-02-15T11:56:26.877Z,0.80
2019-02-15T11:58:55.270Z,0.90
2019-02-15T12:01:23.336Z,1.12
2019-02-15T12:03:51.746Z,1.60
2019-02-15T12:06:19.812Z,0.80
2019-02-15T12:08:48.296Z,0.95
2019-02-15T12:11:16.693Z,1.12
2019-02-15T12:13:45.101Z,0.80
2019-02-15T12:16:13.501Z,0.70
2019-02-15T12:18:41.909Z,1.00
2019-02-15T12:21:10.300Z,1.00
2019-02-15T12:23:38.793Z,0.80
2019-02-15T12:26:07.179Z,0.40
2019-02-15T12:28:35.589Z,0.70
2019-02-15T12:31:03.993Z,0.57
2019-02-15T12:33:32.408Z,0.70
2019-02-15T12:36:00.805Z,0.60
2019-02-15T12:38:28.938Z,0.50
2019-02-15T12:40:57.365Z,0.50
2019-02-15T12:43:25.772Z,0.40
2019-02-15T12:45:54.164Z,0.60
2019-02-15T12:48:22.244Z,0.55
2019-02-15T12:50:50.909Z,0.50
2019-02-15T12:53:19.324Z,0.70
2019-02-15T12:55:47.720Z,0.53
2019-02-15T12:58:16.121Z,0.90
2019-02-15T13:00:44.543Z,0.50
2019-02-15T13:03:13.924Z,0.60
2019-02-15T13:05:42.392Z,0.70
2019-02-15T13:08:10.826Z,0.62
2019-02-15T13:10:40.550Z,0.60
2019-02-15T13:13:08.963Z,0.70
2019-02-15T13:15:37.355Z,0.82
2019-02-15T13:18:05.765Z,0.50
2019-02-15T13:20:34.181Z,0.50
2019-02-15T13:23:02.584Z,0.80
2019-02-15T13:25:36.839Z,0.70
2019-02-15T13:28:01.139Z,0.98
2019-02-15T13:30:29.548Z,0.60
2019-02-15T13:32:57.941Z,0.53
2019-02-15T13:35:26.496Z,0.57
2019-02-15T13:37:54.888Z,0.55
2019-02-15T13:40:23.292Z,0.40
2019-02-15T13:42:51.694Z,0.47
2019-02-15T13:45:20.110Z,0.70
2019-02-15T13:47:48.492Z,0.72
2019-02-15T13:50:19.010Z,0.75
2019-02-15T13:52:47.085Z,0.50
2019-02-15T13:55:15.497Z,0.60
2019-02-15T13:57:43.965Z,0.75
2019-02-15T14:00:13.512Z,0.55
2019-02-15T14:02:41.908Z,0.68
2019-02-15T14:05:11.528Z,0.90
2019-02-15T14:07:39.937Z,0.95
2019-02-15T14:10:14.318Z,0.82
2019-02-15T14:12:42.750Z,0.90
2019-02-15T14:15:11.449Z,0.95
2019-02-15T14:17:45.329Z,0.90
2019-02-15T14:20:12.721Z,1.07
2019-02-15T14:22:41.200Z,1.47
2019-02-15T14:25:11.445Z,0.72
2019-02-15T14:27:39.835Z,0.98
2019-02-15T14:30:12.887Z,1.02
2019-02-15T14:32:41.276Z,1.10
2019-02-15T14:35:11.016Z,1.05
2019-02-15T14:37:39.501Z,0.90
2019-02-15T14:40:10.501Z,1.00
2019-02-15T14:42:38.900Z,1.00
2019-02-15T14:45:12.003Z,0.90
2019-02-15T14:47:40.484Z,1.20
2019-02-15T14:50:10.132Z,1.22
2019-02-15T14:52:38.531Z,1.32
2019-02-15T14:55:08.884Z,0.90
2019-02-15T14:57:37.293Z,1.30
2019-02-15T15:00:25.050Z,1.20
2019-02-15T15:02:53.497Z,1.57
2019-02-15T15:05:21.935Z,1.60
2019-02-15T15:07:50.378Z,1.35
2019-02-15T15:10:18.789Z,1.20
2019-02-15T15:12:46.852Z,2.08
2019-02-15T15:15:17.964Z,1.45
2019-02-15T15:17:46.360Z,1.40
2019-02-15T15:20:15.129Z,2.05
2019-02-15T15:22:43.528Z,1.67
2019-02-15T15:25:12.284Z,1.90
2019-02-15T15:27:40.438Z,1.87
2019-02-15T15:30:13.585Z,2.35
2019-02-15T15:32:41.975Z,1.90
2019-02-15T15:35:10.833Z,2.05
2019-02-15T15:37:39.226Z,2.25
2019-02-15T15:40:11.520Z,2.40
2019-02-15T15:42:39.916Z,2.02
2019-02-15T15:45:10.670Z,2.70
2019-02-15T15:47:39.061Z,2.47
2019-02-15T15:50:11.504Z,2.45
2019-02-15T15:52:40.168Z,2.75
2019-02-15T15:55:10.409Z,2.33
2019-02-15T15:57:38.800Z,2.50
2019-02-15T16:00:10.266Z,2.62
2019-02-15T16:02:38.653Z,3.00
2019-02-15T16:05:08.478Z,2.47
2019-02-15T16:07:36.875Z,2.42
2019-02-15T16:10:06.777Z,2.40
2019-02-15T16:12:35.172Z,2.52
2019-02-15T16:15:04.877Z,2.92
2019-02-15T16:17:33.288Z,2.45
2019-02-15T16:20:01.704Z,2.90
2019-02-15T16:22:30.093Z,2.40
2019-02-15T16:24:58.495Z,2.47
2019-02-15T16:27:26.901Z,2.65
2019-02-15T16:29:54.970Z,3.22
2019-02-15T16:32:23.376Z,2.30
2019-02-15T16:34:51.768Z,2.80
2019-02-15T16:37:19.857Z,3.12
2019-02-15T16:39:48.277Z,2.42
2019-02-15T16:42:16.685Z,2.70
2019-02-15T16:44:44.760Z,2.70
2019-02-15T16:47:13.172Z,2.50
2019-02-15T16:49:41.639Z,3.90
2019-02-15T16:52:10.046Z,2.70
2019-02-15T16:54:38.535Z,2.37
2019-02-15T16:57:06.926Z,2.35
2019-02-15T16:59:35.336Z,2.55
2019-02-15T17:02:03.886Z,2.25
2019-02-15T17:04:32.353Z,2.40
2019-02-15T17:07:01.644Z,2.10
2019-02-15T17:09:30.048Z,2.40
2019-02-15T17:11:58.123Z,2.42
2019-02-15T17:14:26.534Z,2.20
2019-02-15T17:16:54.940Z,3.12
2019-02-15T17:19:23.336Z,2.65
2019-02-15T17:21:51.741Z,2.35
2019-02-15T17:24:20.140Z,2.60
2019-02-15T17:26:48.545Z,2.63
2019-02-15T17:29:16.941Z,2.10
2019-02-15T17:31:45.427Z,2.45
2019-02-15T17:34:13.805Z,2.70
2019-02-15T17:36:42.217Z,2.55
2019-02-15T17:39:10.889Z,2.35
2019-02-15T17:41:39.339Z,2.52
2019-02-15T17:44:07.777Z,2.65
2019-02-15T17:46:36.185Z,2.80
2019-02-15T17:49:04.247Z,3.98
2019-02-15T17:51:32.666Z,3.27
2019-02-15T17:54:00.743Z,3.77
2019-02-15T17:56:29.158Z,3.40
2019-02-15T17:58:57.638Z,3.87
2019-02-15T18:01:26.047Z,3.13
2019-02-15T18:03:54.440Z,3.40
2019-02-15T18:06:22.860Z,2.97
2019-02-15T18:08:50.940Z,3.33
2019-02-15T18:11:19.340Z,3.23
2019-02-15T18:13:47.824Z,2.70
2019-02-15T18:16:16.240Z,2.60
2019-02-15T18:18:44.638Z,2.77
2019-02-15T18:21:13.048Z,2.97
2019-02-15T18:23:41.448Z,2.90
2019-02-15T18:26:09.929Z,2.60
2019-02-15T18:28:38.453Z,3.40
2019-02-15T18:31:06.552Z,2.90
2019-02-15T18:33:34.966Z,3.50
2019-02-15T18:36:03.403Z,3.63
2019-02-15T18:38:31.833Z,4.03
2019-02-15T18:41:00.234Z,3.80
2019-02-15T18:43:28.632Z,5.40
2019-02-15T18:45:57.031Z,5.00
2019-02-15T18:48:25.431Z,5.87
2019-02-15T18:50:53.829Z,5.20
2019-02-15T18:53:22.240Z,6.73
2019-02-15T18:55:50.649Z,6.60
2019-02-15T18:58:19.048Z,6.17
2019-02-15T19:00:47.443Z,7.10
2019-02-15T19:03:15.889Z,7.17
2019-02-15T19:05:44.396Z,7.97
2019-02-15T19:08:12.799Z,6.70
2019-02-15T19:10:41.208Z,6.80
2019-02-15T19:13:09.306Z,6.97
2019-02-15T19:15:37.692Z,7.60
2019-02-15T19:18:05.791Z,7.90
2019-02-15T19:20:34.189Z,6.73
2019-02-15T19:23:02.600Z,6.87
2019-02-15T19:25:30.992Z,6.63
2019-02-15T19:27:59.401Z,6.63
2019-02-15T19:30:30.504Z,7.13
2019-02-15T19:32:58.916Z,6.07
2019-02-15T19:35:27.317Z,6.10
2019-02-15T19:37:55.759Z,5.20
2019-02-15T19:40:24.401Z,4.37
2019-02-15T19:42:55.878Z,4.40
2019-02-15T19:45:44.088Z,4.23
2019-02-15T19:48:12.496Z,4.13
2019-02-15T19:50:40.898Z,4.10
2019-02-15T19:53:09.303Z,4.97
2019-02-15T19:55:37.716Z,4.17
2019-02-15T19:58:05.995Z,3.97
2019-02-15T20:00:35.610Z,4.13
2019-02-15T20:03:04.042Z,3.50
2019-02-15T20:05:32.433Z,4.67
2019-02-15T20:08:00.533Z,4.67
2019-02-15T20:10:29.184Z,4.70
2019-02-15T20:12:57.612Z,4.20
2019-02-15T20:15:26.029Z,4.30
2019-02-15T20:17:54.426Z,4.03
2019-02-15T20:20:22.838Z,4.10
2019-02-15T20:22:51.241Z,3.67
2019-02-15T20:25:19.652Z,3.97
2019-02-15T20:27:47.719Z,4.40
2019-02-15T20:30:18.771Z,4.53
2019-02-15T20:32:47.217Z,4.30
2019-02-15T20:35:15.620Z,3.57
2019-02-15T20:37:44.016Z,3.90
2019-02-15T20:40:13.282Z,3.50
2019-02-15T20:42:41.681Z,3.47
2019-02-15T20:45:23.780Z,3.13
2019-02-15T20:47:52.208Z,3.43
2019-02-15T20:50:21.236Z,3.07
2019-02-15T20:52:49.672Z,2.60
2019-02-15T20:55:21.693Z,2.83
2019-02-15T20:57:50.076Z,3.07
2019-02-15T21:00:19.420Z,3.33
2019-02-15T21:02:47.707Z,3.20
2019-02-15T21:05:16.112Z,2.47
2019-02-15T21:07:44.508Z,3.00
2019-02-15T21:10:14.248Z,2.57
2019-02-15T21:12:42.641Z,2.93
2019-02-15T21:15:13.284Z,2.50
2019-02-15T21:17:41.751Z,3.23
2019-02-15T21:20:14.268Z,3.17
2019-02-15T21:22:42.736Z,2.17
2019-02-15T21:25:16.011Z,2.17
2019-02-15T21:27:44.421Z,2.23
2019-02-15T21:30:19.241Z,2.00
2019-02-15T21:32:47.635Z,2.40
2019-02-15T21:35:16.110Z,2.20
2019-02-15T21:37:44.603Z,1.90
2019-02-15T21:40:17.912Z,2.57
2019-02-15T21:42:45.987Z,3.10
2019-02-15T21:45:14.633Z,2.53
2019-02-15T21:47:43.025Z,2.77
2019-02-15T21:50:17.028Z,3.10
2019-02-15T21:52:44.370Z,2.97
2019-02-15T21:55:14.515Z,2.43
2019-02-15T21:57:42.580Z,2.97
2019-02-15T22:00:13.729Z,3.47
2019-02-15T22:02:42.125Z,3.37
2019-02-15T22:05:10.604Z,4.60
2019-02-15T22:07:39.000Z,4.13
2019-02-15T22:10:09.444Z,3.53
2019-02-15T22:12:37.942Z,4.13
2019-02-15T22:15:11.538Z,3.53
2019-02-15T22:17:39.931Z,3.47
2019-02-15T22:20:09.576Z,4.30
2019-02-15T22:22:37.979Z,3.73
2019-02-15T22:25:06.657Z,3.53
2019-02-15T22:27:35.080Z,3.50
2019-02-15T22:30:05.693Z,3.27
2019-02-15T22:32:34.084Z,3.57
2019-02-15T22:35:02.488Z,3.67
2019-02-15T22:37:30.882Z,3.77
2019-02-15T22:40:21.544Z,2.83
2019-02-15T22:42:49.612Z,3.67
2019-02-15T22:45:18.023Z,3.07
2019-02-15T22:47:46.415Z,3.03
2019-02-15T22:50:14.808Z,3.10
2019-02-15T22:52:43.216Z,2.63
2019-02-15T22:55:11.613Z,2.53
2019-02-15T22:57:40.017Z,2.40
2019-02-15T23:00:14.413Z,2.73
2019-02-15T23:02:42.636Z,3.03
2019-02-15T23:05:11.030Z,3.20
2019-02-15T23:07:39.109Z,2.60
2019-02-15T23:10:09.298Z,2.60
2019-02-15T23:12:37.713Z,3.13
2019-02-15T23:15:07.147Z,3.47
2019-02-15T23:17:35.637Z,2.47
2019-02-15T23:20:04.440Z,3.00
2019-02-15T23:22:32.848Z,2.77
2019-02-15T23:25:01.255Z,2.20
2019-02-15T23:27:29.660Z,2.47
2019-02-15T23:29:57.728Z,2.40
2019-02-15T23:32:26.136Z,2.57
2019-02-15T23:34:54.536Z,2.47
2019-02-15T23:37:22.954Z,2.40
2019-02-15T23:39:51.345Z,2.40
2019-02-15T23:42:19.416Z,3.17
2019-02-15T23:44:47.813Z,2.33
2019-02-15T23:47:16.224Z,2.63
2019-02-15T23:49:44.291Z,2.43
2019-02-15T23:52:12.692Z,2.33
2019-02-15T23:54:41.092Z,2.33
2019-02-15T23:57:09.607Z,2.40
2019-02-15T23:59:38.004Z,2.50
